Time;durP1;ratioP1;P1;durP2;ratioP2;P2;SDS_P1;SDS_P2;PMS_P1;PMS_P2;Temp;Humidity;BMP_temperature;BMP_pressure;BME280_temperature;BME280_humidity;BME280_pressure;Samples;Min_cycle;Max_cycle;Signal;HPM_P1;HPM_P2
2023/06/17 00:02:07;;;;;;;12.15;6.32;;;17.10;96.50;;;;;;6214623;23;20066;-76
2023/06/17 00:04:33;;;;;;;8.40;6.53;;;17.00;96.50;;;;;;6214433;23;20051;-77
2023/06/17 00:06:58;;;;;;;9.82;6.30;;;17.00;96.80;;;;;;6241263;23;20024;-76
2023/06/17 00:09:25;;;;;;;9.02;5.97;;;17.00;96.80;;;;;;6214152;23;20020;-77
2023/06/17 00:11:52;;;;;;;9.77;6.57;;;17.00;96.70;;;;;;6241227;23;20083;-76
2023/06/17 00:14:20;;;;;;;13.32;6.65;;;16.90;96.70;;;;;;6214022;23;20016;-77
2023/06/17 00:16:47;;;;;;;7.68;6.78;;;16.90;96.80;;;;;;6214258;23;20012;-77
2023/06/17 00:19:16;;;;;;;10.38;6.72;;;16.90;96.90;;;;;;6214703;23;20050;-77
2023/06/17 00:21:48;;;;;;;13.45;7.22;;;16.90;97.30;;;;;;6215673;23;20048;-77
2023/06/17 00:24:14;;;;;;;10.15;6.80;;;16.90;97.30;;;;;;6243221;23;20019;-77
2023/06/17 00:26:40;;;;;;;11.77;6.90;;;16.80;97.50;;;;;;6215774;23;20023;-77
2023/06/17 00:29:06;;;;;;;15.98;7.20;;;16.80;97.80;;;;;;6216673;23;20023;-76
2023/06/17 00:31:32;;;;;;;7.88;6.25;;;16.70;98.00;;;;;;6216900;23;20020;-77
2023/06/17 00:33:58;;;;;;;8.50;6.93;;;16.70;97.90;;;;;;6215906;23;20016;-78
2023/06/17 00:36:24;;;;;;;11.55;6.70;;;16.70;98.00;;;;;;6243332;23;20024;-76
2023/06/17 00:38:50;;;;;;;11.90;6.82;;;16.70;98.00;;;;;;6251072;23;20012;-76
2023/06/17 00:41:16;;;;;;;10.75;6.63;;;16.60;98.20;;;;;;6223175;23;20012;-75
2023/06/17 00:43:42;;;;;;;8.93;6.75;;;16.70;98.30;;;;;;6216141;23;20020;-77
2023/06/17 00:46:17;;;;;;;11.75;7.85;;;16.60;98.80;;;;;;6215608;23;20016;-76
2023/06/17 00:48:42;;;;;;;9.75;6.97;;;16.60;98.40;;;;;;6215788;23;20020;-77
2023/06/17 00:51:08;;;;;;;12.45;7.18;;;16.60;99.00;;;;;;6215921;23;20082;-77
2023/06/17 00:53:34;;;;;;;11.45;7.75;;;16.60;99.50;;;;;;6216194;23;20521;-76
2023/06/17 00:56:01;;;;;;;11.45;7.40;;;16.50;99.70;;;;;;6243157;23;20350;-76
2023/06/17 00:58:27;;;;;;;11.35;7.60;;;16.50;99.50;;;;;;6215623;23;20077;-77
2023/06/17 01:00:52;;;;;;;12.65;7.75;;;16.50;99.70;;;;;;6243075;23;20023;-77
2023/06/17 01:03:18;;;;;;;15.23;8.02;;;16.50;99.60;;;;;;6215504;23;20032;-77
2023/06/17 01:05:49;;;;;;;12.60;8.00;;;16.50;99.90;;;;;;6215566;23;20012;-77
2023/06/17 01:08:44;;;;;;;11.25;7.63;;;16.50;99.90;;;;;;6215437;23;20020;-77
2023/06/17 01:11:14;;;;;;;11.27;7.72;;;16.40;99.90;;;;;;6242568;23;20380;-76
2023/06/17 01:13:47;;;;;;;12.77;8.95;;;16.40;99.90;;;;;;6215448;23;20459;-77
2023/06/17 01:16:14;;;;;;;10.68;7.70;;;16.40;99.90;;;;;;6242624;23;20386;-77
2023/06/17 01:18:48;;;;;;;10.20;7.47;;;16.40;99.90;;;;;;6215187;23;20447;-76
2023/06/17 01:21:17;;;;;;;14.98;7.85;;;16.40;99.90;;;;;;6215320;23;20024;-77
2023/06/17 01:23:43;;;;;;;12.05;8.23;;;16.40;99.90;;;;;;6242732;23;20024;-77
2023/06/17 01:26:08;;;;;;;13.00;8.10;;;16.40;99.90;;;;;;6215533;23;20021;-78
2023/06/17 01:28:36;;;;;;;10.43;8.32;;;16.40;99.90;;;;;;6215287;23;20016;-77
2023/06/17 01:31:02;;;;;;;10.80;7.95;;;16.40;99.90;;;;;;6214832;23;20023;-77
2023/06/17 01:33:28;;;;;;;14.00;8.27;;;16.30;99.90;;;;;;6190075;23;20016;-77
2023/06/17 01:36:00;;;;;;;13.05;8.45;;;16.30;99.90;;;;;;6215409;23;20022;-77
2023/06/17 01:38:49;;;;;;;14.25;8.32;;;16.30;99.90;;;;;;6215599;23;20016;-77
2023/06/17 01:41:24;;;;;;;11.02;8.57;;;16.40;99.90;;;;;;6242162;23;20050;-76
2023/06/17 01:43:51;;;;;;;13.10;8.55;;;16.40;99.90;;;;;;6242619;23;20012;-76
2023/06/17 01:46:18;;;;;;;14.95;9.45;;;16.40;99.90;;;;;;6215243;23;20071;-77
2023/06/17 01:48:44;;;;;;;14.43;8.93;;;16.40;99.90;;;;;;6215412;23;20104;-77
2023/06/17 01:51:10;;;;;;;17.17;9.77;;;16.40;99.90;;;;;;6215562;23;20047;-76
2023/06/17 01:53:36;;;;;;;16.48;9.88;;;16.40;99.90;;;;;;6215316;23;20047;-77
2023/06/17 01:56:02;;;;;;;24.45;11.32;;;16.40;99.90;;;;;;6215801;23;20016;-77
2023/06/17 01:58:27;;;;;;;18.85;10.43;;;16.40;99.90;;;;;;6222859;23;20024;-77
2023/06/17 02:00:53;;;;;;;17.23;10.48;;;16.40;99.90;;;;;;6254661;23;20076;-76
2023/06/17 02:03:19;;;;;;;19.58;11.00;;;16.40;99.90;;;;;;6195226;23;20059;-76
2023/06/17 02:05:44;;;;;;;15.07;10.05;;;16.40;99.90;;;;;;6215857;23;20008;-76
2023/06/17 02:08:11;;;;;;;23.77;10.90;;;16.50;99.90;;;;;;6215354;23;20074;-76
2023/06/17 02:10:37;;;;;;;18.33;10.30;;;16.50;99.90;;;;;;6241168;23;20370;-76
2023/06/17 02:13:04;;;;;;;18.85;11.57;;;16.50;99.90;;;;;;6242050;23;20020;-77
2023/06/17 02:15:32;;;;;;;19.60;11.55;;;16.40;99.90;;;;;;6214819;23;20436;-76
2023/06/17 02:17:58;;;;;;;18.40;13.05;;;16.50;99.90;;;;;;6241859;23;20020;-75
2023/06/17 02:20:23;;;;;;;22.27;13.10;;;16.50;99.90;;;;;;6214809;23;20126;-77
2023/06/17 02:22:49;;;;;;;17.40;11.75;;;16.50;99.90;;;;;;6214802;23;20486;-77
2023/06/17 02:25:15;;;;;;;20.98;12.77;;;16.50;99.90;;;;;;6240523;23;20016;-78
2023/06/17 02:27:41;;;;;;;23.83;13.93;;;16.60;99.90;;;;;;6242254;23;20065;-77
2023/06/17 02:30:09;;;;;;;20.83;13.80;;;16.60;99.90;;;;;;6215193;23;20027;-77
2023/06/17 02:32:35;;;;;;;18.65;12.82;;;16.60;99.90;;;;;;6240762;23;20038;-77
2023/06/17 02:35:02;;;;;;;21.73;13.85;;;16.60;99.90;;;;;;6241980;23;20012;-76
2023/06/17 02:37:28;;;;;;;24.70;13.60;;;16.50;99.90;;;;;;6214713;23;20016;-76
2023/06/17 02:39:54;;;;;;;24.42;14.00;;;16.50;99.90;;;;;;6242142;23;20015;-77
2023/06/17 02:42:20;;;;;;;21.30;13.52;;;16.60;99.90;;;;;;6240038;23;20024;-76
2023/06/17 02:44:46;;;;;;;26.55;14.73;;;16.60;99.90;;;;;;6215263;23;20742;-77
2023/06/17 02:47:12;;;;;;;26.75;15.80;;;16.60;99.90;;;;;;6215016;23;20020;-77
2023/06/17 02:49:38;;;;;;;23.10;14.30;;;16.50;99.90;;;;;;6241699;23;20027;-77
2023/06/17 02:52:05;;;;;;;23.52;16.05;;;16.50;99.90;;;;;;6242027;23;20022;-77
2023/06/17 02:54:30;;;;;;;30.58;14.48;;;16.50;99.90;;;;;;6214938;23;20392;-77
2023/06/17 02:56:56;;;;;;;24.83;15.25;;;16.60;99.90;;;;;;6214746;23;20040;-77
2023/06/17 02:59:22;;;;;;;26.00;15.77;;;16.60;99.90;;;;;;6214604;23;20028;-77
2023/06/17 03:01:48;;;;;;;23.23;14.65;;;16.60;99.90;;;;;;6214372;23;20023;-77
2023/06/17 03:04:14;;;;;;;24.08;14.18;;;16.50;99.90;;;;;;6189369;23;20344;-76
2023/06/17 03:06:41;;;;;;;22.73;15.68;;;16.50;99.90;;;;;;6212613;23;20351;-78
2023/06/17 03:09:11;;;;;;;29.73;16.27;;;16.50;99.90;;;;;;6215232;23;20039;-77
2023/06/17 03:11:37;;;;;;;30.13;15.60;;;16.50;99.90;;;;;;6239531;23;20402;-78
2023/06/17 03:14:03;;;;;;;25.60;16.45;;;16.40;99.90;;;;;;6215162;23;20020;-78
2023/06/17 03:16:33;;;;;;;23.77;16.42;;;16.40;99.90;;;;;;6190131;23;20107;-78
2023/06/17 03:19:00;;;;;;;23.23;15.63;;;16.40;99.90;;;;;;6215382;23;20020;-78
2023/06/17 03:21:29;;;;;;;25.52;15.50;;;16.40;99.90;;;;;;6240480;23;20053;-78
2023/06/17 03:24:00;;;;;;;25.08;16.85;;;16.40;99.90;;;;;;6242355;23;20043;-78
2023/06/17 03:26:27;;;;;;;25.63;16.67;;;16.40;99.90;;;;;;6215026;23;20763;-79
2023/06/17 03:28:53;;;;;;;23.77;16.95;;;16.40;99.90;;;;;;6214725;23;20016;-78
2023/06/17 03:31:21;;;;;;;27.02;16.13;;;16.60;99.90;;;;;;6215041;23;20047;-77
2023/06/17 03:33:53;;;;;;;26.27;17.92;;;16.50;99.90;;;;;;6241799;23;20347;-77
2023/06/17 03:36:24;;;;;;;28.60;17.83;;;16.50;99.90;;;;;;6214851;23;20035;-78
2023/06/17 03:38:50;;;;;;;27.88;16.73;;;16.40;99.90;;;;;;6214469;23;20020;-78
2023/06/17 03:41:16;;;;;;;28.73;17.88;;;16.40;99.90;;;;;;6214521;23;20099;-78
2023/06/17 03:43:41;;;;;;;29.05;17.13;;;16.50;99.90;;;;;;6241782;23;20044;-78
2023/06/17 03:46:07;;;;;;;30.00;17.27;;;16.50;99.90;;;;;;6242159;23;20044;-78
2023/06/17 03:48:33;;;;;;;31.55;17.45;;;16.50;99.90;;;;;;6214995;23;20432;-78
2023/06/17 03:51:00;;;;;;;25.98;16.05;;;16.50;99.90;;;;;;6215176;23;20028;-79
2023/06/17 03:53:26;;;;;;;30.23;16.38;;;16.50;99.90;;;;;;6215285;23;20012;-79
2023/06/17 03:55:52;;;;;;;29.75;17.77;;;16.50;99.90;;;;;;6217079;23;20706;-78
2023/06/17 03:58:18;;;;;;;29.65;16.98;;;16.40;99.90;;;;;;6220538;23;20044;-79
2023/06/17 04:00:44;;;;;;;34.42;18.00;;;16.50;99.90;;;;;;6237231;23;20012;-78
2023/06/17 04:03:11;;;;;;;31.83;18.00;;;16.50;99.90;;;;;;6229121;23;20131;-78
2023/06/17 04:05:37;;;;;;;32.60;18.08;;;16.50;99.90;;;;;;6216973;23;20020;-77
2023/06/17 04:08:04;;;;;;;35.20;19.50;;;16.50;99.90;;;;;;6212095;23;20044;-78
2023/06/17 04:10:30;;;;;;;29.17;18.67;;;16.50;99.90;;;;;;6212082;23;20033;-78
2023/06/17 04:12:56;;;;;;;32.45;18.63;;;16.60;99.90;;;;;;6187782;23;20025;-78
2023/06/17 04:15:21;;;;;;;30.40;19.20;;;16.60;99.90;;;;;;6188781;23;20035;-79
2023/06/17 04:17:47;;;;;;;34.70;18.98;;;16.40;99.90;;;;;;6213297;23;20040;-78
2023/06/17 04:20:13;;;;;;;27.63;18.13;;;16.40;99.90;;;;;;6217812;23;20342;-79
2023/06/17 04:22:39;;;;;;;29.27;17.92;;;16.40;99.90;;;;;;6244763;23;20023;-77
2023/06/17 04:25:07;;;;;;;31.00;17.88;;;16.40;99.90;;;;;;6244131;23;20016;-78
2023/06/17 04:27:33;;;;;;;34.15;18.20;;;16.40;99.90;;;;;;6243074;23;20026;-77
2023/06/17 04:29:59;;;;;;;33.38;18.65;;;16.40;99.90;;;;;;6243441;23;20095;-77
2023/06/17 04:32:26;;;;;;;31.45;18.67;;;16.40;99.90;;;;;;6216350;23;20087;-77
2023/06/17 04:34:52;;;;;;;30.63;18.35;;;16.20;99.90;;;;;;6241258;23;20016;-77
2023/06/17 04:37:18;;;;;;;33.00;18.55;;;16.20;99.90;;;;;;6241330;23;20043;-77
2023/06/17 04:39:44;;;;;;;34.58;18.05;;;16.30;99.90;;;;;;6215940;23;20466;-77
2023/06/17 04:42:10;;;;;;;32.15;18.48;;;16.30;99.90;;;;;;6243244;23;20048;-78
2023/06/17 04:44:39;;;;;;;34.42;19.08;;;16.40;99.90;;;;;;6216150;23;20079;-78
2023/06/17 04:47:10;;;;;;;29.90;18.60;;;16.50;99.90;;;;;;6216122;23;20012;-78
2023/06/17 04:49:41;;;;;;;34.20;18.95;;;16.50;99.90;;;;;;6215893;23;20103;-78
2023/06/17 04:52:11;;;;;;;34.25;18.75;;;16.60;99.90;;;;;;6216351;23;20023;-78
2023/06/17 04:54:37;;;;;;;27.85;18.08;;;16.50;99.90;;;;;;6242684;23;20019;-78
2023/06/17 04:57:04;;;;;;;27.58;17.38;;;16.50;99.90;;;;;;6191108;23;20012;-78
2023/06/17 04:59:30;;;;;;;26.70;18.08;;;16.50;99.90;;;;;;6191089;23;20031;-76
2023/06/17 05:01:56;;;;;;;30.40;17.30;;;16.60;99.90;;;;;;6241346;23;20012;-77
2023/06/17 05:04:21;;;;;;;30.27;17.45;;;16.60;99.90;;;;;;6216004;23;20090;-77
2023/06/17 05:06:48;;;;;;;32.70;18.33;;;16.60;99.90;;;;;;6215743;23;20072;-77
2023/06/17 05:09:13;;;;;;;28.23;17.40;;;16.60;99.90;;;;;;6216670;23;20503;-77
2023/06/17 05:11:40;;;;;;;28.90;17.05;;;16.60;99.90;;;;;;6243585;23;20051;-79
2023/06/17 05:14:06;;;;;;;29.30;16.67;;;16.50;99.90;;;;;;6216812;23;20050;-79
2023/06/17 05:16:32;;;;;;;28.33;17.38;;;16.50;99.90;;;;;;6216399;23;20498;-78
2023/06/17 05:18:58;;;;;;;24.90;15.93;;;16.60;99.90;;;;;;6254295;23;20050;-78
2023/06/17 05:21:23;;;;;;;22.73;16.35;;;16.60;99.90;;;;;;6234377;23;20158;-79
2023/06/17 05:23:50;;;;;;;25.27;16.65;;;16.60;99.90;;;;;;6231866;23;20076;-79
2023/06/17 05:26:16;;;;;;;23.00;16.48;;;16.60;99.90;;;;;;6218719;23;20466;-79
2023/06/17 05:28:43;;;;;;;21.77;14.60;;;16.60;99.90;;;;;;6217492;23;20020;-78
2023/06/17 05:31:09;;;;;;;19.23;14.90;;;16.50;99.90;;;;;;6216510;23;20016;-78
2023/06/17 05:33:35;;;;;;;22.98;13.70;;;16.60;99.90;;;;;;6216923;23;20390;-78
2023/06/17 05:36:01;;;;;;;19.90;14.15;;;16.60;99.90;;;;;;6216212;23;20454;-78
2023/06/17 05:38:28;;;;;;;20.45;13.15;;;16.60;99.90;;;;;;6241693;23;20020;-78
2023/06/17 05:40:53;;;;;;;19.02;13.80;;;16.60;99.90;;;;;;6242089;23;20016;-78
2023/06/17 05:43:19;;;;;;;22.90;14.50;;;16.60;99.90;;;;;;6191540;23;20410;-78
2023/06/17 05:45:45;;;;;;;20.42;14.45;;;16.60;99.90;;;;;;6243459;23;20087;-78
2023/06/17 05:48:11;;;;;;;22.80;15.63;;;16.50;99.90;;;;;;6216038;23;20020;-78
2023/06/17 05:50:37;;;;;;;20.77;14.13;;;16.30;99.90;;;;;;6242853;23;20016;-78
2023/06/17 05:53:02;;;;;;;21.40;13.77;;;16.40;99.90;;;;;;6215631;23;20025;-78
2023/06/17 05:55:28;;;;;;;22.67;14.52;;;16.50;99.90;;;;;;6215251;23;20042;-75
2023/06/17 05:57:54;;;;;;;19.63;14.50;;;16.50;99.90;;;;;;6215216;23;20351;-77
2023/06/17 06:00:22;;;;;;;25.73;14.98;;;16.50;99.90;;;;;;6215447;23;20408;-76
2023/06/17 06:02:50;;;;;;;25.15;15.45;;;16.60;99.90;;;;;;6190379;23;20438;-77
2023/06/17 06:05:16;;;;;;;21.08;14.05;;;16.70;99.90;;;;;;6215407;23;20095;-75
2023/06/17 06:07:43;;;;;;;25.52;13.73;;;16.60;99.90;;;;;;6241839;23;20776;-76
2023/06/17 06:10:10;;;;;;;24.95;14.82;;;16.60;99.90;;;;;;6241937;23;20096;-77
2023/06/17 06:12:36;;;;;;;20.42;13.98;;;16.60;99.90;;;;;;6242491;23;20008;-77
2023/06/17 06:15:03;;;;;;;20.58;14.40;;;16.60;99.90;;;;;;6216135;23;20023;-79
2023/06/17 06:17:29;;;;;;;22.75;14.68;;;16.70;99.90;;;;;;6242141;23;20343;-77
2023/06/17 06:19:55;;;;;;;18.52;13.52;;;16.70;99.90;;;;;;6215489;23;20019;-75
2023/06/17 06:22:21;;;;;;;22.73;14.32;;;16.70;99.90;;;;;;6219503;23;20028;-77
2023/06/17 06:24:47;;;;;;;23.50;15.48;;;16.80;99.90;;;;;;6220525;23;20026;-79
2023/06/17 06:27:13;;;;;;;25.60;14.27;;;16.70;99.90;;;;;;6220680;23;20024;-80
2023/06/17 06:29:38;;;;;;;23.83;14.68;;;16.80;99.90;;;;;;6247993;23;20035;-79
2023/06/17 06:32:05;;;;;;;24.85;14.95;;;16.80;99.90;;;;;;6221174;23;20363;-81
2023/06/17 06:34:30;;;;;;;26.35;15.23;;;16.70;99.90;;;;;;6247847;23;20030;-79
2023/06/17 06:36:58;;;;;;;25.83;17.08;;;16.80;99.90;;;;;;6221231;23;20036;-79
2023/06/17 06:39:24;;;;;;;26.10;16.50;;;16.80;99.90;;;;;;6218067;23;20055;-79
2023/06/17 06:41:50;;;;;;;29.63;17.98;;;16.80;99.90;;;;;;6244128;23;20077;-80
2023/06/17 06:44:16;;;;;;;26.08;16.45;;;16.80;99.90;;;;;;6238684;23;20012;-80
2023/06/17 06:46:42;;;;;;;25.30;15.43;;;16.80;99.90;;;;;;6257336;23;20105;-80
2023/06/17 06:49:08;;;;;;;24.25;16.30;;;16.90;99.90;;;;;;6216938;23;20055;-80
2023/06/17 06:51:34;;;;;;;30.15;18.25;;;16.80;99.90;;;;;;6216769;23;20406;-80
2023/06/17 06:54:00;;;;;;;24.38;16.48;;;17.00;99.90;;;;;;6217197;23;20016;-80
2023/06/17 06:56:26;;;;;;;25.75;15.85;;;17.00;99.90;;;;;;6215869;23;20095;-79
2023/06/17 06:58:52;;;;;;;27.95;17.13;;;17.20;99.90;;;;;;6214983;23;20054;-80
2023/06/17 07:01:18;;;;;;;29.60;16.77;;;17.10;99.90;;;;;;6242496;23;20150;-79
2023/06/17 07:03:44;;;;;;;29.30;17.85;;;17.10;99.90;;;;;;6242703;23;20771;-80
2023/06/17 07:06:10;;;;;;;30.67;17.90;;;17.10;99.90;;;;;;6242081;23;20514;-80
2023/06/17 07:08:35;;;;;;;27.83;17.15;;;17.10;99.90;;;;;;6242838;23;20047;-80
2023/06/17 07:11:02;;;;;;;30.88;16.13;;;17.20;99.90;;;;;;6215291;23;20043;-80
2023/06/17 07:13:27;;;;;;;21.85;16.15;;;17.30;99.90;;;;;;6215657;23;20172;-78
2023/06/17 07:15:53;;;;;;;28.55;17.55;;;17.60;99.90;;;;;;6242729;23;20068;-78
2023/06/17 07:18:19;;;;;;;22.67;15.57;;;17.40;99.90;;;;;;6215143;23;20024;-78
2023/06/17 07:20:44;;;;;;;24.42;16.65;;;17.40;99.90;;;;;;6215003;23;20016;-78
2023/06/17 07:23:10;;;;;;;31.13;17.02;;;17.40;99.90;;;;;;6189461;23;20016;-79
2023/06/17 07:25:36;;;;;;;28.30;16.95;;;17.40;99.90;;;;;;6214783;23;20019;-79
2023/06/17 07:28:03;;;;;;;30.30;16.75;;;17.50;99.90;;;;;;6214632;23;20062;-79
2023/06/17 07:30:29;;;;;;;24.95;16.55;;;17.60;99.90;;;;;;6214048;23;20012;-78
2023/06/17 07:32:55;;;;;;;23.58;16.70;;;18.00;99.90;;;;;;6190082;23;20026;-79
2023/06/17 07:35:21;;;;;;;24.20;16.13;;;18.00;99.90;;;;;;6215148;23;20023;-78
2023/06/17 07:37:50;;;;;;;22.50;14.52;;;18.00;99.90;;;;;;6214730;23;20356;-79
2023/06/17 07:40:15;;;;;;;26.88;16.80;;;18.10;99.90;;;;;;6214087;23;20081;-73
2023/06/17 07:42:44;;;;;;;24.80;16.63;;;18.10;99.90;;;;;;6240854;23;20024;-74
2023/06/17 07:45:10;;;;;;;26.98;16.02;;;18.20;99.90;;;;;;6240879;23;20028;-73
2023/06/17 07:47:37;;;;;;;22.83;16.33;;;18.40;99.90;;;;;;6214031;23;20022;-73
2023/06/17 07:50:04;;;;;;;25.52;15.60;;;18.20;99.90;;;;;;6213464;23;20024;-74
2023/06/17 07:52:31;;;;;;;27.98;16.83;;;18.10;99.90;;;;;;6213601;23;20066;-74
2023/06/17 07:54:57;;;;;;;25.67;16.45;;;18.10;99.90;;;;;;6239090;23;20351;-74
2023/06/17 07:57:23;;;;;;;20.67;15.20;;;18.10;99.90;;;;;;6240972;23;20087;-74
2023/06/17 07:59:49;;;;;;;29.00;16.83;;;18.30;99.90;;;;;;6213819;23;20435;-73
2023/06/17 08:02:15;;;;;;;25.58;16.10;;;18.60;99.90;;;;;;6213703;23;20590;-74
2023/06/17 08:04:41;;;;;;;27.92;18.17;;;18.70;99.90;;;;;;6240813;23;20016;-73
2023/06/17 08:07:06;;;;;;;25.70;15.70;;;18.90;99.90;;;;;;6208545;23;20100;-73
2023/06/17 08:09:32;;;;;;;24.80;16.52;;;18.90;99.90;;;;;;6211209;23;20021;-74
2023/06/17 08:11:58;;;;;;;28.27;16.20;;;19.10;99.90;;;;;;6208821;23;20036;-74
2023/06/17 08:14:24;;;;;;;23.70;16.38;;;18.80;99.90;;;;;;6209037;23;20021;-73
2023/06/17 08:16:49;;;;;;;23.45;15.85;;;18.90;99.90;;;;;;6240701;23;20087;-74
2023/06/17 08:19:15;;;;;;;23.90;16.75;;;18.90;99.90;;;;;;6240602;23;20012;-74
2023/06/17 08:21:45;;;;;;;29.40;16.70;;;19.00;99.90;;;;;;6238974;23;20122;-74
2023/06/17 08:24:21;;;;;;;21.80;14.90;;;19.20;99.90;;;;;;6214059;23;20444;-74
2023/06/17 08:26:47;;;;;;;27.52;16.45;;;19.40;99.90;;;;;;6213582;23;20360;-74
2023/06/17 08:29:15;;;;;;;25.38;16.73;;;19.30;99.90;;;;;;6241113;23;20044;-73
2023/06/17 08:31:45;;;;;;;22.77;15.93;;;19.30;99.90;;;;;;6240731;23;20013;-73
2023/06/17 08:34:12;;;;;;;21.80;15.05;;;19.30;99.90;;;;;;6240461;23;20012;-74
2023/06/17 08:36:39;;;;;;;24.58;15.90;;;19.50;99.90;;;;;;6240668;23;20574;-72
2023/06/17 08:39:05;;;;;;;25.67;16.77;;;19.80;99.90;;;;;;6239805;23;20016;-73
2023/06/17 08:41:36;;;;;;;19.38;14.05;;;19.60;99.90;;;;;;6215432;23;20509;-72
2023/06/17 08:44:04;;;;;;;20.33;14.90;;;19.70;99.90;;;;;;6215668;23;20012;-73
2023/06/17 08:46:30;;;;;;;18.70;14.55;;;19.70;99.90;;;;;;6242685;23;20023;-73
2023/06/17 08:48:58;;;;;;;22.20;15.60;;;19.90;99.90;;;;;;6216317;23;20020;-72
2023/06/17 08:51:24;;;;;;;19.98;13.80;;;20.00;99.90;;;;;;6215607;23;20012;-72
2023/06/17 08:53:51;;;;;;;19.80;14.55;;;20.20;99.90;;;;;;6215248;23;20031;-73
2023/06/17 08:56:18;;;;;;;24.05;15.57;;;20.20;99.90;;;;;;6240598;23;20020;-72
2023/06/17 08:58:44;;;;;;;23.35;14.13;;;20.00;99.90;;;;;;6242939;23;20106;-73
2023/06/17 09:01:13;;;;;;;20.45;14.35;;;20.00;99.90;;;;;;6242335;23;20058;-71
2023/06/17 09:03:43;;;;;;;19.63;14.50;;;20.30;99.90;;;;;;6215884;23;20565;-73
2023/06/17 09:06:28;;;;;;;21.52;14.93;;;20.50;99.90;;;;;;6242271;23;20372;-73
2023/06/17 09:08:57;;;;;;;27.13;15.57;;;20.30;99.90;;;;;;6242081;23;20597;-73
2023/06/17 09:11:28;;;;;;;24.15;13.32;;;20.20;99.90;;;;;;6215186;23;20043;-73
2023/06/17 09:13:56;;;;;;;21.80;15.20;;;20.50;99.90;;;;;;6240374;23;20100;-74
2023/06/17 09:16:29;;;;;;;22.88;14.52;;;20.60;99.90;;;;;;6215122;23;20023;-73
2023/06/17 09:18:57;;;;;;;21.20;12.35;;;20.50;99.90;;;;;;6214847;23;20016;-73
2023/06/17 09:21:24;;;;;;;22.52;15.02;;;20.80;99.90;;;;;;6242623;23;20343;-73
2023/06/17 09:23:57;;;;;;;25.88;16.15;;;20.70;99.90;;;;;;6215272;23;20452;-73
2023/06/17 09:26:28;;;;;;;22.42;14.80;;;20.60;99.90;;;;;;6214881;23;20035;-72
2023/06/17 09:29:03;;;;;;;23.42;13.75;;;20.60;99.90;;;;;;6215661;23;20020;-73
2023/06/17 09:31:29;;;;;;;24.23;14.70;;;20.70;99.90;;;;;;6215252;23;20020;-73
2023/06/17 09:33:56;;;;;;;21.38;14.63;;;20.70;99.90;;;;;;6215111;23;20020;-73
2023/06/17 09:36:23;;;;;;;21.48;12.38;;;20.90;99.90;;;;;;6214767;23;20024;-69
2023/06/17 09:38:51;;;;;;;25.10;13.40;;;20.90;99.90;;;;;;6241065;23;20058;-70
2023/06/17 09:41:18;;;;;;;20.85;13.15;;;20.50;99.90;;;;;;6241870;23;20012;-72
2023/06/17 09:43:54;;;;;;;19.48;14.15;;;21.10;99.90;;;;;;6239931;23;20016;-73
2023/06/17 09:46:35;;;;;;;22.52;14.30;;;21.00;99.90;;;;;;6214481;23;20019;-71
2023/06/17 09:49:05;;;;;;;17.13;13.18;;;21.10;99.90;;;;;;6241633;23;20443;-71
2023/06/17 09:51:36;;;;;;;22.25;15.10;;;21.50;99.90;;;;;;6241602;23;20012;-72
2023/06/17 09:54:04;;;;;;;18.77;13.00;;;21.20;99.90;;;;;;6241915;23;20019;-72
2023/06/17 09:56:31;;;;;;;18.35;12.20;;;21.40;99.90;;;;;;6242003;23;20035;-72
2023/06/17 09:58:57;;;;;;;18.10;12.48;;;21.80;99.90;;;;;;6239829;23;20024;-71
2023/06/17 10:01:30;;;;;;;16.60;11.23;;;21.90;99.90;;;;;;6241824;23;20016;-72
2023/06/17 10:03:58;;;;;;;16.20;12.57;;;22.00;99.90;;;;;;6241712;23;20016;-72
2023/06/17 10:06:28;;;;;;;18.27;12.48;;;22.00;99.90;;;;;;6214649;23;20447;-71
2023/06/17 10:08:54;;;;;;;14.85;10.98;;;22.30;99.90;;;;;;6214470;23;20021;-72
2023/06/17 10:11:20;;;;;;;19.85;12.05;;;22.50;99.90;;;;;;6242026;23;20339;-71
2023/06/17 10:14:23;;;;;;;19.33;12.48;;;22.60;99.90;;;;;;6214583;23;20016;-72
2023/06/17 10:16:50;;;;;;;20.33;13.40;;;22.60;99.90;;;;;;6242125;23;20235;-72
2023/06/17 10:19:20;;;;;;;16.83;12.75;;;22.60;99.90;;;;;;6214573;23;20040;-72
2023/06/17 10:21:48;;;;;;;20.23;13.80;;;22.40;99.90;;;;;;6241612;23;20057;-71
2023/06/17 10:24:16;;;;;;;24.58;13.02;;;22.20;99.90;;;;;;6214575;23;20016;-73
2023/06/17 10:26:42;;;;;;;20.70;10.38;;;22.40;99.90;;;;;;6241235;23;20023;-72
2023/06/17 10:29:10;;;;;;;22.67;13.55;;;22.60;99.90;;;;;;6214113;23;20024;-72
2023/06/17 10:31:40;;;;;;;17.67;11.85;;;22.50;99.90;;;;;;6239725;23;20047;-72
2023/06/17 10:34:13;;;;;;;16.92;10.07;;;22.60;99.90;;;;;;6241422;23;20548;-72
2023/06/17 10:36:39;;;;;;;17.83;12.88;;;22.90;99.90;;;;;;6214379;23;20032;-72
2023/06/17 10:39:07;;;;;;;18.02;11.43;;;22.80;99.90;;;;;;6214457;23;20047;-72
2023/06/17 10:41:41;;;;;;;16.55;9.57;;;23.00;99.90;;;;;;6241679;23;20340;-73
2023/06/17 10:44:35;;;;;;;10.85;9.73;;;23.20;99.90;;;;;;6214143;23;20046;-71
2023/06/17 10:47:16;;;;;;;14.93;10.52;;;23.40;99.90;;;;;;6213150;23;20023;-72
2023/06/17 10:49:42;;;;;;;13.68;10.35;;;23.50;99.90;;;;;;6239495;23;20523;-72
2023/06/17 10:52:40;;;;;;;12.70;9.27;;;23.70;99.90;;;;;;6223822;22;20027;-76
2023/06/17 10:55:09;;;;;;;15.43;11.10;;;23.80;99.90;;;;;;6223594;23;20062;-67
2023/06/17 10:57:35;;;;;;;16.15;9.77;;;23.80;99.90;;;;;;6224021;23;20027;-67
2023/06/17 11:00:08;;;;;;;15.77;8.68;;;23.80;99.90;;;;;;6224299;23;20491;-68
2023/06/17 11:02:36;;;;;;;11.63;8.80;;;23.90;99.90;;;;;;6198880;23;20020;-67
2023/06/17 11:05:02;;;;;;;17.45;9.95;;;23.90;99.90;;;;;;6251423;23;20340;-67
2023/06/17 11:07:28;;;;;;;12.52;8.90;;;23.90;99.80;;;;;;6250740;23;20039;-65
2023/06/17 11:09:54;;;;;;;15.43;8.20;;;24.10;99.70;;;;;;6251734;23;20031;-67
2023/06/17 11:12:20;;;;;;;13.48;8.43;;;24.20;99.00;;;;;;6250550;23;20083;-68
2023/06/17 11:14:45;;;;;;;12.85;7.72;;;24.20;98.80;;;;;;6250979;23;20445;-67
2023/06/17 11:17:11;;;;;;;14.20;8.57;;;24.30;98.80;;;;;;6251275;23;20020;-66
2023/06/17 11:19:37;;;;;;;15.98;9.90;;;24.40;98.80;;;;;;6250887;23;20090;-71
2023/06/17 11:22:03;;;;;;;20.17;9.35;;;24.50;98.20;;;;;;6224518;23;20415;-72
2023/06/17 11:24:33;;;;;;;10.93;8.02;;;24.40;98.40;;;;;;6223497;23;20131;-72
2023/06/17 11:27:00;;;;;;;11.30;9.13;;;24.40;98.50;;;;;;6250964;23;20388;-71
2023/06/17 11:29:27;;;;;;;14.23;8.23;;;24.40;98.60;;;;;;6250771;23;20059;-72
2023/06/17 11:32:02;;;;;;;13.43;7.63;;;24.60;98.70;;;;;;6250952;23;20024;-72
2023/06/17 11:34:31;;;;;;;11.18;6.90;;;24.50;97.60;;;;;;6251179;23;20027;-72
2023/06/17 11:37:00;;;;;;;10.50;6.82;;;24.60;97.20;;;;;;6223337;23;20059;-72
2023/06/17 11:39:28;;;;;;;11.15;7.53;;;24.70;97.20;;;;;;6251354;23;20044;-72
2023/06/17 11:42:03;;;;;;;18.52;7.55;;;24.80;97.10;;;;;;6223222;23;20027;-75
2023/06/17 11:44:31;;;;;;;13.43;6.95;;;24.90;97.10;;;;;;6224547;23;20036;-73
2023/06/17 11:47:06;;;;;;;10.77;7.22;;;24.90;97.10;;;;;;6251219;23;20024;-65
2023/06/17 11:49:32;;;;;;;10.13;7.45;;;24.90;96.80;;;;;;6250967;23;20020;-66
2023/06/17 11:52:08;;;;;;;13.50;7.47;;;25.00;97.10;;;;;;6251332;23;20072;-71
2023/06/17 11:54:45;;;;;;;11.18;7.47;;;25.00;96.60;;;;;;6251074;23;20024;-69
2023/06/17 11:57:16;;;;;;;10.10;7.20;;;25.10;97.10;;;;;;6251591;23;20084;-69
2023/06/17 11:59:43;;;;;;;9.10;6.83;;;25.20;96.80;;;;;;6251666;23;20027;-67
2023/06/17 12:02:10;;;;;;;12.00;6.63;;;25.20;96.70;;;;;;6251425;23;20503;-69
2023/06/17 12:04:36;;;;;;;9.38;6.95;;;25.30;96.80;;;;;;6224275;23;20020;-72
2023/06/17 12:07:06;;;;;;;13.25;6.38;;;25.30;96.40;;;;;;6223986;23;20020;-70
2023/06/17 12:09:48;;;;;;;10.65;5.95;;;25.50;95.70;;;;;;6251621;23;20028;-70
2023/06/17 12:12:34;;;;;;;7.20;6.13;;;25.60;95.80;;;;;;6223912;23;20024;-69
2023/06/17 12:15:08;;;;;;;11.13;6.28;;;25.70;95.20;;;;;;6251348;23;20145;-66
2023/06/17 12:17:41;;;;;;;10.38;6.13;;;25.90;94.70;;;;;;6253772;23;20039;-70
2023/06/17 12:20:18;;;;;;;10.98;6.30;;;25.80;95.00;;;;;;6225693;23;20461;-69
2023/06/17 12:22:45;;;;;;;9.55;6.10;;;25.70;94.90;;;;;;6226097;23;20323;-69
2023/06/17 12:25:11;;;;;;;12.18;6.53;;;25.80;94.90;;;;;;6225493;23;20051;-72
2023/06/17 12:27:37;;;;;;;9.68;6.10;;;26.00;95.00;;;;;;6253002;23;20020;-71
2023/06/17 12:30:05;;;;;;;9.50;5.75;;;25.90;94.20;;;;;;6225914;23;20389;-68
2023/06/17 12:32:31;;;;;;;14.15;5.57;;;25.80;93.10;;;;;;6225710;23;20020;-67
2023/06/17 12:34:58;;;;;;;13.45;5.85;;;25.80;93.90;;;;;;6253440;23;20026;-69